createdAt,value
2022-08-06T00:00:03.349Z,1.25
2022-08-06T00:04:53.829Z,1.20
2022-08-06T00:10:00.413Z,1.45
2022-08-06T00:15:12.232Z,1.42
2022-08-06T00:20:25.588Z,2.05
2022-08-06T00:25:35.748Z,1.40
2022-08-06T00:30:47.421Z,1.35
2022-08-06T00:35:51.403Z,1.75
2022-08-06T00:40:58.925Z,1.80
2022-08-06T00:46:02.059Z,1.90
2022-08-06T00:51:18.424Z,1.67
2022-08-06T00:56:27.052Z,2.05
2022-08-06T01:01:50.739Z,1.98
2022-08-06T01:06:58.518Z,2.15
2022-08-06T01:12:03.548Z,2.67
2022-08-06T01:17:18.936Z,2.28
2022-08-06T01:22:43.068Z,2.08
2022-08-06T01:27:52.528Z,2.50
2022-08-06T01:33:00.005Z,2.10
2022-08-06T01:38:10.662Z,2.22
2022-08-06T01:43:23.260Z,2.55
2022-08-06T01:48:42.324Z,2.17
2022-08-06T01:54:06.549Z,2.28
2022-08-06T01:59:14.384Z,2.47
2022-08-06T02:04:19.760Z,2.58
2022-08-06T02:09:33.538Z,2.28
2022-08-06T02:14:43.369Z,2.78
2022-08-06T02:20:07.200Z,2.60
2022-08-06T02:25:22.219Z,2.90
2022-08-06T02:30:37.036Z,2.30
2022-08-06T02:35:51.279Z,2.10
2022-08-06T02:41:00.597Z,2.40
2022-08-06T02:46:13.080Z,2.42
2022-08-06T02:51:43.612Z,1.73
2022-08-06T02:56:47.925Z,1.70
2022-08-06T03:01:56.439Z,1.70
2022-08-06T03:07:06.575Z,1.58
2022-08-06T03:12:29.882Z,1.65
2022-08-06T03:17:36.077Z,1.30
2022-08-06T03:22:44.798Z,1.40
2022-08-06T03:27:49.385Z,1.30
2022-08-06T03:32:54.803Z,1.40
2022-08-06T03:38:02.498Z,1.30
2022-08-06T03:43:06.888Z,1.30
2022-08-06T03:48:15.010Z,1.30
2022-08-06T03:53:44.601Z,1.35
2022-08-06T03:58:54.176Z,1.15
2022-08-06T04:04:01.636Z,1.20
2022-08-06T04:09:33.614Z,0.90
2022-08-06T04:14:49.387Z,1.00
2022-08-06T04:19:54.758Z,1.08
2022-08-06T04:24:59.870Z,0.77
2022-08-06T04:30:03.396Z,0.90
2022-08-06T04:36:06.770Z,0.90
2022-08-06T04:40:41.509Z,0.95
2022-08-06T04:46:17.832Z,0.80
2022-08-06T04:52:36.907Z,0.65
2022-08-06T04:56:49.638Z,0.63
2022-08-06T05:02:00.590Z,0.90
2022-08-06T05:07:13.846Z,0.60
2022-08-06T05:12:23.264Z,0.70
2022-08-06T05:17:35.153Z,0.93
2022-08-06T05:22:52.195Z,0.47
2022-08-06T05:28:09.634Z,0.55
2022-08-06T05:33:16.662Z,0.73
2022-08-06T05:38:32.139Z,0.60
2022-08-06T05:43:59.000Z,0.45
2022-08-06T05:49:11.798Z,0.50
2022-08-06T05:54:35.866Z,0.50
2022-08-06T05:59:58.015Z,0.57
2022-08-06T06:06:07.498Z,0.50
2022-08-06T06:10:27.772Z,0.55
2022-08-06T06:16:00.441Z,0.50
2022-08-06T06:21:17.746Z,0.50
2022-08-06T06:26:33.019Z,0.50
2022-08-06T06:32:06.283Z,0.65
2022-08-06T06:37:16.382Z,0.52
2022-08-06T06:42:33.171Z,0.50
2022-08-06T06:47:46.485Z,0.50
2022-08-06T06:52:57.124Z,0.50
2022-08-06T06:58:10.457Z,0.60
2022-08-06T07:03:15.308Z,0.60
2022-08-06T07:08:30.208Z,0.77
2022-08-06T07:13:47.653Z,0.60
2022-08-06T07:18:55.292Z,0.50
2022-08-06T07:24:07.058Z,0.60
2022-08-06T07:29:48.676Z,0.50
2022-08-06T07:34:46.185Z,0.60
2022-08-06T07:39:51.538Z,0.70
2022-08-06T07:44:59.665Z,0.70
2022-08-06T07:50:02.495Z,0.70
2022-08-06T07:55:05.958Z,0.80
2022-08-06T08:00:15.093Z,0.70
2022-08-06T08:05:39.256Z,0.80
2022-08-06T08:10:43.208Z,0.60
2022-08-06T08:15:47.963Z,0.60
2022-08-06T08:20:54.163Z,0.50
2022-08-06T08:25:57.937Z,0.90
2022-08-06T08:31:11.240Z,0.52
2022-08-06T08:36:30.716Z,0.40
2022-08-06T08:41:48.361Z,0.60
2022-08-06T08:46:57.787Z,0.50
2022-08-06T08:52:03.855Z,0.45
2022-08-06T08:58:40.141Z,0.60
2022-08-06T09:02:48.300Z,0.60
2022-08-06T09:08:01.586Z,0.45
2022-08-06T09:13:21.835Z,0.30
2022-08-06T09:18:29.816Z,0.47
2022-08-06T09:23:36.830Z,0.40
2022-08-06T09:28:55.388Z,0.20
2022-08-06T09:34:28.927Z,0.30
2022-08-06T09:39:46.070Z,0.40
2022-08-06T09:45:15.244Z,0.30
2022-08-06T09:50:37.631Z,0.30
2022-08-06T09:55:41.779Z,0.50
2022-08-06T10:00:46.391Z,0.40
2022-08-06T10:06:10.713Z,0.38
2022-08-06T10:11:20.272Z,0.50
2022-08-06T10:16:28.638Z,0.40
2022-08-06T10:21:42.148Z,0.43
2022-08-06T10:26:48.472Z,0.45
2022-08-06T10:31:54.843Z,0.57
2022-08-06T10:37:03.717Z,0.30
2022-08-06T10:42:21.941Z,0.38
2022-08-06T10:49:01.551Z,0.32
2022-08-06T10:52:51.445Z,0.30
2022-08-06T10:57:54.576Z,0.50
2022-08-06T11:03:05.711Z,0.40
2022-08-06T11:08:49.138Z,0.32
2022-08-06T11:14:04.008Z,0.35
2022-08-06T11:19:09.674Z,0.35
2022-08-06T11:24:15.474Z,0.30
2022-08-06T11:29:19.314Z,0.47
2022-08-06T11:34:34.512Z,0.50
2022-08-06T11:40:16.648Z,0.50
2022-08-06T11:46:21.556Z,0.50
2022-08-06T11:50:43.944Z,0.50
2022-08-06T11:56:09.978Z,0.70
2022-08-06T12:01:33.143Z,0.55
2022-08-06T12:06:38.108Z,0.30
2022-08-06T12:11:45.240Z,0.43
2022-08-06T12:16:53.266Z,0.30
2022-08-06T12:21:57.700Z,0.25
2022-08-06T12:27:02.029Z,0.32
2022-08-06T12:32:21.780Z,0.38
2022-08-06T12:37:41.240Z,0.20
2022-08-06T12:42:55.341Z,0.35
2022-08-06T12:48:03.447Z,0.30
2022-08-06T12:53:11.480Z,0.30
2022-08-06T12:58:42.206Z,0.50
2022-08-06T13:03:44.428Z,0.50
2022-08-06T13:08:54.682Z,0.30
2022-08-06T13:14:14.471Z,0.30
2022-08-06T13:19:21.272Z,0.30
2022-08-06T13:24:35.896Z,0.20
2022-08-06T13:30:32.673Z,0.25
2022-08-06T13:35:07.405Z,0.40
2022-08-06T13:40:10.518Z,0.40
2022-08-06T13:45:56.913Z,0.30
2022-08-06T13:50:47.440Z,0.30
2022-08-06T13:56:01.710Z,0.20
2022-08-06T14:01:07.637Z,0.22
2022-08-06T14:06:10.371Z,0.28
2022-08-06T14:11:13.073Z,0.32
2022-08-06T14:16:17.735Z,0.40
2022-08-06T14:21:20.531Z,0.40
2022-08-06T14:26:25.016Z,1.15
2022-08-06T14:31:32.361Z,0.70
2022-08-06T14:36:55.347Z,0.47
2022-08-06T14:42:15.705Z,0.30
2022-08-06T14:47:56.872Z,0.50
2022-08-06T14:52:42.733Z,0.30
2022-08-06T14:58:04.579Z,0.30
2022-08-06T15:03:13.727Z,0.20
2022-08-06T15:08:17.647Z,0.22
2022-08-06T15:13:20.573Z,0.77
2022-08-06T15:19:08.704Z,0.50
2022-08-06T15:23:53.977Z,0.50
2022-08-06T15:28:57.554Z,0.20
2022-08-06T15:34:06.327Z,0.20
2022-08-06T15:39:10.216Z,0.38
2022-08-06T15:44:13.105Z,0.80
2022-08-06T15:49:20.603Z,0.50
2022-08-06T15:54:28.629Z,0.20
2022-08-06T15:59:52.283Z,0.60
2022-08-06T16:04:56.407Z,0.40
2022-08-06T16:10:02.557Z,0.28
2022-08-06T16:15:08.702Z,0.35
2022-08-06T16:20:20.441Z,0.30
2022-08-06T16:25:40.617Z,3.45
2022-08-06T16:31:14.315Z,0.50
2022-08-06T16:36:13.730Z,0.28
2022-08-06T16:41:16.728Z,0.50
2022-08-06T16:46:27.045Z,0.70
2022-08-06T16:52:43.193Z,0.40
2022-08-06T16:56:54.801Z,0.50
2022-08-06T17:02:22.122Z,0.40
2022-08-06T17:07:40.474Z,0.40
2022-08-06T17:12:46.035Z,0.38
2022-08-06T17:18:00.346Z,0.50
2022-08-06T17:23:04.993Z,0.40
2022-08-06T17:28:08.310Z,0.40
2022-08-06T17:33:13.791Z,0.93
2022-08-06T17:38:21.213Z,0.40
2022-08-06T17:43:56.038Z,0.40
2022-08-06T17:48:49.103Z,0.70
2022-08-06T17:53:55.257Z,0.50
2022-08-06T17:59:04.951Z,0.32
2022-08-06T18:04:21.764Z,0.50
2022-08-06T18:10:09.753Z,0.35
2022-08-06T18:14:51.696Z,0.40
2022-08-06T18:19:55.141Z,0.40
2022-08-06T18:24:59.499Z,0.60
2022-08-06T18:30:02.651Z,0.60
2022-08-06T18:35:06.537Z,0.40
2022-08-06T18:40:19.512Z,0.55
2022-08-06T18:45:36.609Z,0.60
2022-08-06T18:50:39.775Z,0.50
2022-08-06T18:56:04.510Z,0.40
2022-08-06T19:01:21.594Z,0.40
2022-08-06T19:06:29.394Z,0.57
2022-08-06T19:11:39.613Z,0.60
2022-08-06T19:16:48.883Z,0.65
2022-08-06T19:21:53.616Z,0.50
2022-08-06T19:27:02.112Z,0.50
2022-08-06T19:32:08.250Z,0.40
2022-08-06T19:37:32.999Z,0.47
2022-08-06T19:42:35.949Z,0.50
2022-08-06T19:47:38.950Z,0.43
2022-08-06T19:52:45.051Z,0.60
2022-08-06T19:57:51.307Z,0.50
2022-08-06T20:02:54.895Z,0.60
2022-08-06T20:08:31.803Z,0.50
2022-08-06T20:13:22.663Z,0.60
2022-08-06T20:18:26.081Z,0.55
2022-08-06T20:23:40.592Z,0.60
2022-08-06T20:29:10.362Z,0.45
2022-08-06T20:34:12.521Z,0.90
2022-08-06T20:39:20.511Z,1.13
2022-08-06T20:44:25.345Z,1.38
2022-08-06T20:50:03.414Z,2.60
2022-08-06T20:54:55.972Z,2.10
2022-08-06T21:00:00.421Z,1.63
2022-08-06T21:05:14.010Z,1.20
2022-08-06T21:10:21.491Z,1.00
2022-08-06T21:15:54.426Z,0.98
2022-08-06T21:20:52.689Z,1.08
2022-08-06T21:25:58.865Z,0.60
2022-08-06T21:31:04.586Z,1.00
2022-08-06T21:36:14.678Z,0.68
2022-08-06T21:41:54.892Z,0.73
2022-08-06T21:46:59.159Z,1.83
2022-08-06T21:52:04.664Z,0.80
2022-08-06T21:57:11.841Z,0.65
2022-08-06T22:02:19.010Z,0.60
2022-08-06T22:07:25.110Z,0.70
2022-08-06T22:12:39.448Z,0.45
2022-08-06T22:18:02.312Z,0.70
2022-08-06T22:23:05.679Z,0.77
2022-08-06T22:28:10.829Z,0.63
2022-08-06T22:33:29.671Z,0.70
2022-08-06T22:38:36.068Z,0.82
2022-08-06T22:43:55.893Z,0.60
2022-08-06T22:49:01.530Z,0.85
2022-08-06T22:54:29.659Z,1.08
2022-08-06T23:00:06.455Z,0.88
2022-08-06T23:04:51.654Z,0.77
2022-08-06T23:09:59.036Z,0.88
2022-08-06T23:15:03.184Z,1.20
2022-08-06T23:20:26.085Z,0.90
2022-08-06T23:25:59.732Z,0.70
2022-08-06T23:30:57.071Z,0.80
2022-08-06T23:36:01.170Z,0.77
2022-08-06T23:41:15.819Z,0.80
2022-08-06T23:46:27.757Z,1.48
2022-08-06T23:51:36.077Z,0.70
2022-08-06T23:56:57.487Z,0.90
